sensor_id;sensor_type;location;lat;lon;timestamp;temperature;humidity
4425;DHT22;2225;53.568;13.266;2023-01-28T00:01:53;7.20;85.70
4425;DHT22;2225;53.568;13.266;2023-01-28T00:04:20;7.20;86.10
4425;DHT22;2225;53.568;13.266;2023-01-28T00:06:47;7.20;86.40
4425;DHT22;2225;53.568;13.266;2023-01-28T00:09:14;7.10;86.60
4425;DHT22;2225;53.568;13.266;2023-01-28T00:11:41;7.10;86.70
4425;DHT22;2225;53.568;13.266;2023-01-28T00:14:10;7.10;86.80
4425;DHT22;2225;53.568;13.266;2023-01-28T00:16:38;7.10;87.10
4425;DHT22;2225;53.568;13.266;2023-01-28T00:19:04;7.10;87.10
4425;DHT22;2225;53.568;13.266;2023-01-28T00:21:31;7.10;87.10
4425;DHT22;2225;53.568;13.266;2023-01-28T00:23:58;7.10;87.20
4425;DHT22;2225;53.568;13.266;2023-01-28T00:26:25;7.00;87.30
4425;DHT22;2225;53.568;13.266;2023-01-28T00:28:53;7.10;87.40
4425;DHT22;2225;53.568;13.266;2023-01-28T00:31:22;7.10;87.40
4425;DHT22;2225;53.568;13.266;2023-01-28T00:33:50;7.00;87.50
4425;DHT22;2225;53.568;13.266;2023-01-28T00:36:19;7.00;87.60
4425;DHT22;2225;53.568;13.266;2023-01-28T00:38:51;7.00;87.70
4425;DHT22;2225;53.568;13.266;2023-01-28T00:41:21;7.00;87.80
4425;DHT22;2225;53.568;13.266;2023-01-28T00:43:50;6.90;87.90
4425;DHT22;2225;53.568;13.266;2023-01-28T00:46:18;6.90;88.10
4425;DHT22;2225;53.568;13.266;2023-01-28T00:48:47;6.90;88.50
4425;DHT22;2225;53.568;13.266;2023-01-28T00:51:15;6.90;88.80
4425;DHT22;2225;53.568;13.266;2023-01-28T00:53:43;6.80;89.00
4425;DHT22;2225;53.568;13.266;2023-01-28T00:56:13;6.80;89.10
4425;DHT22;2225;53.568;13.266;2023-01-28T00:58:42;6.80;89.30
4425;DHT22;2225;53.568;13.266;2023-01-28T01:01:15;6.80;89.50
4425;DHT22;2225;53.568;13.266;2023-01-28T01:03:44;6.80;89.40
4425;DHT22;2225;53.568;13.266;2023-01-28T01:06:12;6.80;89.30
4425;DHT22;2225;53.568;13.266;2023-01-28T01:08:40;6.80;89.40
4425;DHT22;2225;53.568;13.266;2023-01-28T01:11:10;6.80;89.40
4425;DHT22;2225;53.568;13.266;2023-01-28T01:13:37;6.80;89.40
4425;DHT22;2225;53.568;13.266;2023-01-28T01:18:35;6.80;89.70
4425;DHT22;2225;53.568;13.266;2023-01-28T01:21:09;6.80;89.70
4425;DHT22;2225;53.568;13.266;2023-01-28T01:23:38;6.80;89.90
4425;DHT22;2225;53.568;13.266;2023-01-28T01:26:06;6.70;90.00
4425;DHT22;2225;53.568;13.266;2023-01-28T01:28:33;6.70;90.10
4425;DHT22;2225;53.568;13.266;2023-01-28T01:31:02;6.70;90.10
4425;DHT22;2225;53.568;13.266;2023-01-28T01:33:34;6.70;90.20
4425;DHT22;2225;53.568;13.266;2023-01-28T01:36:01;6.70;90.10
4425;DHT22;2225;53.568;13.266;2023-01-28T01:38:28;6.70;90.30
4425;DHT22;2225;53.568;13.266;2023-01-28T01:40:56;6.70;90.20
4425;DHT22;2225;53.568;13.266;2023-01-28T01:46:44;6.80;90.30
4425;DHT22;2225;53.568;13.266;2023-01-28T01:49:25;6.70;90.30
4425;DHT22;2225;53.568;13.266;2023-01-28T01:52:06;6.70;90.30
4425;DHT22;2225;53.568;13.266;2023-01-28T01:54:36;6.70;90.40
4425;DHT22;2225;53.568;13.266;2023-01-28T01:57:06;6.70;90.40
4425;DHT22;2225;53.568;13.266;2023-01-28T01:59:36;6.70;90.50
4425;DHT22;2225;53.568;13.266;2023-01-28T02:02:06;6.70;90.50
4425;DHT22;2225;53.568;13.266;2023-01-28T02:04:39;6.70;90.60
4425;DHT22;2225;53.568;13.266;2023-01-28T02:07:15;6.60;90.80
4425;DHT22;2225;53.568;13.266;2023-01-28T02:09:42;6.60;90.70
4425;DHT22;2225;53.568;13.266;2023-01-28T02:12:22;6.60;90.70
4425;DHT22;2225;53.568;13.266;2023-01-28T02:15:06;6.60;90.80
4425;DHT22;2225;53.568;13.266;2023-01-28T02:17:40;6.60;90.90
4425;DHT22;2225;53.568;13.266;2023-01-28T02:20:13;6.60;90.80
4425;DHT22;2225;53.568;13.266;2023-01-28T02:23:07;6.60;90.90
4425;DHT22;2225;53.568;13.266;2023-01-28T02:26:09;6.60;91.00
4425;DHT22;2225;53.568;13.266;2023-01-28T02:29:20;6.50;91.10
4425;DHT22;2225;53.568;13.266;2023-01-28T02:32:20;6.60;91.00
4425;DHT22;2225;53.568;13.266;2023-01-28T02:37:52;6.50;91.00
4425;DHT22;2225;53.568;13.266;2023-01-28T02:40:27;6.50;91.10
4425;DHT22;2225;53.568;13.266;2023-01-28T02:42:56;6.50;91.20
4425;DHT22;2225;53.568;13.266;2023-01-28T02:45:26;6.50;91.20
4425;DHT22;2225;53.568;13.266;2023-01-28T02:48:17;6.50;91.30
4425;DHT22;2225;53.568;13.266;2023-01-28T02:51:16;6.50;91.40
4425;DHT22;2225;53.568;13.266;2023-01-28T02:53:56;6.50;91.40
4425;DHT22;2225;53.568;13.266;2023-01-28T02:56:31;6.50;91.30
4425;DHT22;2225;53.568;13.266;2023-01-28T02:59:16;6.50;91.30
4425;DHT22;2225;53.568;13.266;2023-01-28T03:04:52;6.50;91.40
4425;DHT22;2225;53.568;13.266;2023-01-28T03:07:36;6.60;91.50
4425;DHT22;2225;53.568;13.266;2023-01-28T03:10:08;6.50;91.50
4425;DHT22;2225;53.568;13.266;2023-01-28T03:12:39;6.50;91.40
4425;DHT22;2225;53.568;13.266;2023-01-28T03:15:29;6.50;91.40
4425;DHT22;2225;53.568;13.266;2023-01-28T03:18:22;6.50;91.30
4425;DHT22;2225;53.568;13.266;2023-01-28T03:21:18;6.50;91.30
4425;DHT22;2225;53.568;13.266;2023-01-28T03:24:24;6.60;91.30
4425;DHT22;2225;53.568;13.266;2023-01-28T03:27:34;6.50;91.40
4425;DHT22;2225;53.568;13.266;2023-01-28T03:30:46;6.50;91.30
4425;DHT22;2225;53.568;13.266;2023-01-28T03:33:43;6.50;91.40
4425;DHT22;2225;53.568;13.266;2023-01-28T03:36:29;6.50;91.40
4425;DHT22;2225;53.568;13.266;2023-01-28T03:39:39;6.50;91.40
4425;DHT22;2225;53.568;13.266;2023-01-28T03:42:11;6.50;91.50
4425;DHT22;2225;53.568;13.266;2023-01-28T03:45:03;6.50;91.50
4425;DHT22;2225;53.568;13.266;2023-01-28T03:47:32;6.50;91.60
4425;DHT22;2225;53.568;13.266;2023-01-28T03:50:02;6.50;91.50
4425;DHT22;2225;53.568;13.266;2023-01-28T03:52:38;6.50;91.60
4425;DHT22;2225;53.568;13.266;2023-01-28T03:55:20;6.50;91.60
4425;DHT22;2225;53.568;13.266;2023-01-28T03:57:47;6.50;91.60
4425;DHT22;2225;53.568;13.266;2023-01-28T04:00:15;6.50;91.60
4425;DHT22;2225;53.568;13.266;2023-01-28T04:02:43;6.50;91.60
4425;DHT22;2225;53.568;13.266;2023-01-28T04:05:14;6.50;91.70
4425;DHT22;2225;53.568;13.266;2023-01-28T04:07:47;6.50;91.70
4425;DHT22;2225;53.568;13.266;2023-01-28T04:10:26;6.50;91.60
4425;DHT22;2225;53.568;13.266;2023-01-28T04:12:56;6.50;91.70
4425;DHT22;2225;53.568;13.266;2023-01-28T04:15:24;6.50;91.70
4425;DHT22;2225;53.568;13.266;2023-01-28T04:17:53;6.60;91.60
4425;DHT22;2225;53.568;13.266;2023-01-28T04:20:25;6.60;91.60
4425;DHT22;2225;53.568;13.266;2023-01-28T04:22:53;6.60;91.50
4425;DHT22;2225;53.568;13.266;2023-01-28T04:25:21;6.60;91.50
4425;DHT22;2225;53.568;13.266;2023-01-28T04:27:48;6.60;91.40
4425;DHT22;2225;53.568;13.266;2023-01-28T04:30:21;6.60;91.30
4425;DHT22;2225;53.568;13.266;2023-01-28T04:33:15;6.60;91.30
4425;DHT22;2225;53.568;13.266;2023-01-28T04:35:53;6.60;91.10
4425;DHT22;2225;53.568;13.266;2023-01-28T04:38:31;6.60;91.20
4425;DHT22;2225;53.568;13.266;2023-01-28T04:41:04;6.60;91.30
4425;DHT22;2225;53.568;13.266;2023-01-28T04:43:33;6.50;91.30
4425;DHT22;2225;53.568;13.266;2023-01-28T04:46:24;6.60;91.30
4425;DHT22;2225;53.568;13.266;2023-01-28T04:49:01;6.60;91.40
4425;DHT22;2225;53.568;13.266;2023-01-28T04:51:37;6.60;91.40
4425;DHT22;2225;53.568;13.266;2023-01-28T04:54:12;6.50;91.30
4425;DHT22;2225;53.568;13.266;2023-01-28T04:56:40;6.60;91.20
4425;DHT22;2225;53.568;13.266;2023-01-28T04:59:08;6.60;91.10
4425;DHT22;2225;53.568;13.266;2023-01-28T05:01:35;6.60;90.90
4425;DHT22;2225;53.568;13.266;2023-01-28T05:04:02;6.50;90.80
4425;DHT22;2225;53.568;13.266;2023-01-28T05:06:33;6.60;90.90
4425;DHT22;2225;53.568;13.266;2023-01-28T05:09:07;6.60;90.90
4425;DHT22;2225;53.568;13.266;2023-01-28T05:11:34;6.60;90.80
4425;DHT22;2225;53.568;13.266;2023-01-28T05:14:04;6.60;90.60
4425;DHT22;2225;53.568;13.266;2023-01-28T05:16:38;6.60;90.60
4425;DHT22;2225;53.568;13.266;2023-01-28T05:19:06;6.60;90.60
4425;DHT22;2225;53.568;13.266;2023-01-28T05:21:37;6.60;90.90
4425;DHT22;2225;53.568;13.266;2023-01-28T05:24:10;6.60;90.60
4425;DHT22;2225;53.568;13.266;2023-01-28T05:26:37;6.60;90.60
4425;DHT22;2225;53.568;13.266;2023-01-28T05:29:04;6.60;90.40
4425;DHT22;2225;53.568;13.266;2023-01-28T05:31:32;6.60;90.40
4425;DHT22;2225;53.568;13.266;2023-01-28T05:33:59;6.60;90.50
4425;DHT22;2225;53.568;13.266;2023-01-28T05:36:26;6.60;90.40
4425;DHT22;2225;53.568;13.266;2023-01-28T05:38:54;6.60;90.50
4425;DHT22;2225;53.568;13.266;2023-01-28T05:41:21;6.60;90.40
4425;DHT22;2225;53.568;13.266;2023-01-28T05:43:54;6.60;90.30
4425;DHT22;2225;53.568;13.266;2023-01-28T05:46:47;6.60;90.20
4425;DHT22;2225;53.568;13.266;2023-01-28T05:49:34;6.60;90.10
4425;DHT22;2225;53.568;13.266;2023-01-28T05:52:19;6.60;90.10
4425;DHT22;2225;53.568;13.266;2023-01-28T05:54:46;6.60;90.10
4425;DHT22;2225;53.568;13.266;2023-01-28T05:57:13;6.60;89.20
4425;DHT22;2225;53.568;13.266;2023-01-28T05:59:40;6.60;89.10
4425;DHT22;2225;53.568;13.266;2023-01-28T06:02:07;6.60;89.60
4425;DHT22;2225;53.568;13.266;2023-01-28T06:04:35;6.60;89.70
4425;DHT22;2225;53.568;13.266;2023-01-28T06:07:02;6.60;89.30
4425;DHT22;2225;53.568;13.266;2023-01-28T06:09:31;6.60;89.20
4425;DHT22;2225;53.568;13.266;2023-01-28T06:11:59;6.60;88.60
4425;DHT22;2225;53.568;13.266;2023-01-28T06:14:27;6.60;88.10
4425;DHT22;2225;53.568;13.266;2023-01-28T06:17:12;6.60;87.90
4425;DHT22;2225;53.568;13.266;2023-01-28T06:19:46;6.60;88.00
4425;DHT22;2225;53.568;13.266;2023-01-28T06:22:14;6.60;87.90
4425;DHT22;2225;53.568;13.266;2023-01-28T06:24:41;6.60;87.70
4425;DHT22;2225;53.568;13.266;2023-01-28T06:27:08;6.60;87.90
4425;DHT22;2225;53.568;13.266;2023-01-28T06:29:35;6.60;87.90
4425;DHT22;2225;53.568;13.266;2023-01-28T06:32:02;6.60;87.90
4425;DHT22;2225;53.568;13.266;2023-01-28T06:34:29;6.60;87.50
4425;DHT22;2225;53.568;13.266;2023-01-28T06:36:56;6.50;87.40
4425;DHT22;2225;53.568;13.266;2023-01-28T06:39:23;6.60;87.20
4425;DHT22;2225;53.568;13.266;2023-01-28T06:41:53;6.50;87.60
4425;DHT22;2225;53.568;13.266;2023-01-28T06:44:20;6.50;87.90
4425;DHT22;2225;53.568;13.266;2023-01-28T06:46:49;6.60;88.00
4425;DHT22;2225;53.568;13.266;2023-01-28T06:49:16;6.60;87.80
4425;DHT22;2225;53.568;13.266;2023-01-28T06:51:43;6.60;87.80
4425;DHT22;2225;53.568;13.266;2023-01-28T06:54:09;6.60;87.80
4425;DHT22;2225;53.568;13.266;2023-01-28T06:56:36;6.60;87.90
4425;DHT22;2225;53.568;13.266;2023-01-28T06:59:03;6.60;87.80
4425;DHT22;2225;53.568;13.266;2023-01-28T07:01:30;6.60;87.80
4425;DHT22;2225;53.568;13.266;2023-01-28T07:03:57;6.60;87.80
4425;DHT22;2225;53.568;13.266;2023-01-28T07:06:24;6.60;87.70
4425;DHT22;2225;53.568;13.266;2023-01-28T07:08:51;6.60;87.40
4425;DHT22;2225;53.568;13.266;2023-01-28T07:11:18;6.70;87.40
4425;DHT22;2225;53.568;13.266;2023-01-28T07:13:45;6.60;86.90
4425;DHT22;2225;53.568;13.266;2023-01-28T07:16:13;6.60;86.30
4425;DHT22;2225;53.568;13.266;2023-01-28T07:18:40;6.60;85.80
4425;DHT22;2225;53.568;13.266;2023-01-28T07:21:07;6.60;85.40
4425;DHT22;2225;53.568;13.266;2023-01-28T07:23:33;6.60;85.00
4425;DHT22;2225;53.568;13.266;2023-01-28T07:26:02;6.60;85.00
4425;DHT22;2225;53.568;13.266;2023-01-28T07:28:29;6.50;84.80
4425;DHT22;2225;53.568;13.266;2023-01-28T07:30:56;6.50;85.00
4425;DHT22;2225;53.568;13.266;2023-01-28T07:33:24;6.50;85.30
4425;DHT22;2225;53.568;13.266;2023-01-28T07:35:51;6.50;85.50
4425;DHT22;2225;53.568;13.266;2023-01-28T07:38:17;6.60;85.90
4425;DHT22;2225;53.568;13.266;2023-01-28T07:40:45;6.60;86.00
4425;DHT22;2225;53.568;13.266;2023-01-28T07:43:12;6.60;85.30
4425;DHT22;2225;53.568;13.266;2023-01-28T07:45:39;6.60;84.10
4425;DHT22;2225;53.568;13.266;2023-01-28T07:48:08;6.60;82.80
4425;DHT22;2225;53.568;13.266;2023-01-28T07:50:37;6.60;84.00
4425;DHT22;2225;53.568;13.266;2023-01-28T07:53:06;6.60;84.30
4425;DHT22;2225;53.568;13.266;2023-01-28T07:55:36;6.60;84.30
4425;DHT22;2225;53.568;13.266;2023-01-28T07:58:05;6.60;84.00
4425;DHT22;2225;53.568;13.266;2023-01-28T08:00:35;6.70;83.90
4425;DHT22;2225;53.568;13.266;2023-01-28T08:03:13;6.70;84.00
4425;DHT22;2225;53.568;13.266;2023-01-28T08:05:45;6.70;84.30
4425;DHT22;2225;53.568;13.266;2023-01-28T08:08:13;6.70;84.10
4425;DHT22;2225;53.568;13.266;2023-01-28T08:10:41;6.80;84.10
4425;DHT22;2225;53.568;13.266;2023-01-28T08:13:10;6.80;84.10
4425;DHT22;2225;53.568;13.266;2023-01-28T08:15:38;6.80;83.80
4425;DHT22;2225;53.568;13.266;2023-01-28T08:18:07;6.80;83.40
4425;DHT22;2225;53.568;13.266;2023-01-28T08:20:34;6.80;83.70
4425;DHT22;2225;53.568;13.266;2023-01-28T08:23:10;6.80;83.60
4425;DHT22;2225;53.568;13.266;2023-01-28T08:25:38;6.80;83.90
4425;DHT22;2225;53.568;13.266;2023-01-28T08:28:06;6.80;84.70
4425;DHT22;2225;53.568;13.266;2023-01-28T08:30:35;6.80;84.00
4425;DHT22;2225;53.568;13.266;2023-01-28T08:33:05;6.80;83.90
4425;DHT22;2225;53.568;13.266;2023-01-28T08:35:33;6.80;82.60
4425;DHT22;2225;53.568;13.266;2023-01-28T08:38:01;6.80;82.50
4425;DHT22;2225;53.568;13.266;2023-01-28T08:40:29;6.80;81.80
4425;DHT22;2225;53.568;13.266;2023-01-28T08:42:56;6.80;81.90
4425;DHT22;2225;53.568;13.266;2023-01-28T08:45:24;6.80;81.30
4425;DHT22;2225;53.568;13.266;2023-01-28T08:47:55;6.80;81.90
4425;DHT22;2225;53.568;13.266;2023-01-28T08:50:35;6.80;82.30
4425;DHT22;2225;53.568;13.266;2023-01-28T08:53:15;6.80;82.40
4425;DHT22;2225;53.568;13.266;2023-01-28T08:55:44;6.80;82.40
4425;DHT22;2225;53.568;13.266;2023-01-28T08:58:14;6.70;82.40
4425;DHT22;2225;53.568;13.266;2023-01-28T09:00:43;6.70;82.30
4425;DHT22;2225;53.568;13.266;2023-01-28T09:03:12;6.70;82.40
4425;DHT22;2225;53.568;13.266;2023-01-28T09:05:39;6.60;82.40
4425;DHT22;2225;53.568;13.266;2023-01-28T09:08:12;6.60;82.60
4425;DHT22;2225;53.568;13.266;2023-01-28T09:10:40;6.60;82.70
4425;DHT22;2225;53.568;13.266;2023-01-28T09:13:13;6.50;82.90
4425;DHT22;2225;53.568;13.266;2023-01-28T09:15:41;6.50;83.30
4425;DHT22;2225;53.568;13.266;2023-01-28T09:18:09;6.50;83.70
4425;DHT22;2225;53.568;13.266;2023-01-28T09:20:36;6.60;83.70
4425;DHT22;2225;53.568;13.266;2023-01-28T09:23:04;6.60;83.90
4425;DHT22;2225;53.568;13.266;2023-01-28T09:25:31;6.60;84.10
4425;DHT22;2225;53.568;13.266;2023-01-28T09:27:58;6.70;84.20
4425;DHT22;2225;53.568;13.266;2023-01-28T09:30:26;6.80;84.20
4425;DHT22;2225;53.568;13.266;2023-01-28T09:32:54;6.80;83.60
4425;DHT22;2225;53.568;13.266;2023-01-28T09:35:22;6.90;82.80
4425;DHT22;2225;53.568;13.266;2023-01-28T09:37:49;6.90;81.90
4425;DHT22;2225;53.568;13.266;2023-01-28T09:40:34;7.00;81.10
4425;DHT22;2225;53.568;13.266;2023-01-28T09:43:14;7.00;80.10
4425;DHT22;2225;53.568;13.266;2023-01-28T09:45:52;7.10;80.30
4425;DHT22;2225;53.568;13.266;2023-01-28T09:48:24;7.10;80.00
4425;DHT22;2225;53.568;13.266;2023-01-28T09:50:56;7.20;79.90
4425;DHT22;2225;53.568;13.266;2023-01-28T09:53:31;7.20;79.70
4425;DHT22;2225;53.568;13.266;2023-01-28T09:56:02;7.30;78.80
4425;DHT22;2225;53.568;13.266;2023-01-28T09:58:32;7.30;79.10
4425;DHT22;2225;53.568;13.266;2023-01-28T10:01:39;7.30;78.20
4425;DHT22;2225;53.568;13.266;2023-01-28T10:04:37;7.40;77.90
4425;DHT22;2225;53.568;13.266;2023-01-28T10:07:41;7.40;77.40
4425;DHT22;2225;53.568;13.266;2023-01-28T10:10:34;7.40;77.20
4425;DHT22;2225;53.568;13.266;2023-01-28T10:13:27;7.40;76.90
4425;DHT22;2225;53.568;13.266;2023-01-28T10:16:22;7.50;77.70
4425;DHT22;2225;53.568;13.266;2023-01-28T10:21:55;7.50;76.90
4425;DHT22;2225;53.568;13.266;2023-01-28T10:24:30;7.50;77.00
4425;DHT22;2225;53.568;13.266;2023-01-28T10:27:14;7.60;77.00
4425;DHT22;2225;53.568;13.266;2023-01-28T10:29:42;7.60;77.40
4425;DHT22;2225;53.568;13.266;2023-01-28T10:32:28;7.60;77.30
4425;DHT22;2225;53.568;13.266;2023-01-28T10:34:57;7.60;77.30
4425;DHT22;2225;53.568;13.266;2023-01-28T10:37:25;7.50;76.70
4425;DHT22;2225;53.568;13.266;2023-01-28T10:39:56;7.50;76.60
4425;DHT22;2225;53.568;13.266;2023-01-28T10:42:31;7.50;77.10
4425;DHT22;2225;53.568;13.266;2023-01-28T10:47:46;7.60;76.90
4425;DHT22;2225;53.568;13.266;2023-01-28T10:50:24;7.60;76.60
4425;DHT22;2225;53.568;13.266;2023-01-28T10:52:59;7.60;75.90
4425;DHT22;2225;53.568;13.266;2023-01-28T10:55:36;7.60;75.40
4425;DHT22;2225;53.568;13.266;2023-01-28T10:58:23;7.60;76.00
4425;DHT22;2225;53.568;13.266;2023-01-28T11:00:56;7.60;76.50
4425;DHT22;2225;53.568;13.266;2023-01-28T11:03:26;7.70;76.40
4425;DHT22;2225;53.568;13.266;2023-01-28T11:05:54;7.70;75.70
4425;DHT22;2225;53.568;13.266;2023-01-28T11:08:22;7.70;76.10
4425;DHT22;2225;53.568;13.266;2023-01-28T11:10:51;7.70;75.90
4425;DHT22;2225;53.568;13.266;2023-01-28T11:13:24;7.70;75.60
4425;DHT22;2225;53.568;13.266;2023-01-28T11:16:04;7.70;75.70
4425;DHT22;2225;53.568;13.266;2023-01-28T11:18:39;7.70;75.60
4425;DHT22;2225;53.568;13.266;2023-01-28T11:21:15;7.70;75.70
4425;DHT22;2225;53.568;13.266;2023-01-28T11:23:57;7.80;74.80
4425;DHT22;2225;53.568;13.266;2023-01-28T11:26:31;7.70;74.90
4425;DHT22;2225;53.568;13.266;2023-01-28T11:29:00;7.70;75.00
4425;DHT22;2225;53.568;13.266;2023-01-28T11:31:27;7.70;75.30
4425;DHT22;2225;53.568;13.266;2023-01-28T11:33:57;7.70;75.70
4425;DHT22;2225;53.568;13.266;2023-01-28T11:36:29;7.70;75.70
4425;DHT22;2225;53.568;13.266;2023-01-28T11:39:00;7.70;76.70
4425;DHT22;2225;53.568;13.266;2023-01-28T11:41:42;7.70;76.90
4425;DHT22;2225;53.568;13.266;2023-01-28T11:44:23;7.70;77.00
4425;DHT22;2225;53.568;13.266;2023-01-28T11:53:26;7.90;76.80
4425;DHT22;2225;53.568;13.266;2023-01-28T11:56:32;7.90;76.90
4425;DHT22;2225;53.568;13.266;2023-01-28T11:59:22;7.90;77.30
4425;DHT22;2225;53.568;13.266;2023-01-28T12:01:56;7.90;77.40
4425;DHT22;2225;53.568;13.266;2023-01-28T12:07:36;8.00;76.90
4425;DHT22;2225;53.568;13.266;2023-01-28T12:15:48;8.00;77.20
4425;DHT22;2225;53.568;13.266;2023-01-28T12:18:59;8.10;78.00
4425;DHT22;2225;53.568;13.266;2023-01-28T12:21:56;8.10;78.10
4425;DHT22;2225;53.568;13.266;2023-01-28T12:25:12;8.10;78.20
4425;DHT22;2225;53.568;13.266;2023-01-28T12:28:02;8.20;78.30
4425;DHT22;2225;53.568;13.266;2023-01-28T12:33:34;8.20;78.70
4425;DHT22;2225;53.568;13.266;2023-01-28T12:36:29;8.30;79.10
4425;DHT22;2225;53.568;13.266;2023-01-28T12:42:46;8.50;78.70
4425;DHT22;2225;53.568;13.266;2023-01-28T12:48:11;8.50;78.50
4425;DHT22;2225;53.568;13.266;2023-01-28T12:50:48;8.60;78.10
4425;DHT22;2225;53.568;13.266;2023-01-28T12:53:22;8.60;78.00
4425;DHT22;2225;53.568;13.266;2023-01-28T12:55:57;8.70;77.40
4425;DHT22;2225;53.568;13.266;2023-01-28T12:58:38;8.70;77.30
4425;DHT22;2225;53.568;13.266;2023-01-28T13:01:13;8.70;76.70
4425;DHT22;2225;53.568;13.266;2023-01-28T13:03:59;8.70;75.50
4425;DHT22;2225;53.568;13.266;2023-01-28T13:06:39;8.70;75.60
4425;DHT22;2225;53.568;13.266;2023-01-28T13:09:21;8.70;75.10
4425;DHT22;2225;53.568;13.266;2023-01-28T13:11:53;8.70;75.40
4425;DHT22;2225;53.568;13.266;2023-01-28T13:14:27;8.70;75.90
4425;DHT22;2225;53.568;13.266;2023-01-28T13:17:06;8.60;76.00
4425;DHT22;2225;53.568;13.266;2023-01-28T13:19:39;8.60;76.70
4425;DHT22;2225;53.568;13.266;2023-01-28T13:22:32;8.50;77.10
4425;DHT22;2225;53.568;13.266;2023-01-28T13:25:24;8.50;75.70
4425;DHT22;2225;53.568;13.266;2023-01-28T13:27:56;8.40;75.40
4425;DHT22;2225;53.568;13.266;2023-01-28T13:30:32;8.40;75.70
4425;DHT22;2225;53.568;13.266;2023-01-28T13:33:06;8.30;75.90
4425;DHT22;2225;53.568;13.266;2023-01-28T13:35:54;8.30;76.50
4425;DHT22;2225;53.568;13.266;2023-01-28T13:38:21;8.30;76.70
4425;DHT22;2225;53.568;13.266;2023-01-28T13:40:54;8.30;76.80
4425;DHT22;2225;53.568;13.266;2023-01-28T13:43:34;8.30;76.80
4425;DHT22;2225;53.568;13.266;2023-01-28T13:46:13;8.20;77.00
4425;DHT22;2225;53.568;13.266;2023-01-28T13:48:55;8.20;77.20
4425;DHT22;2225;53.568;13.266;2023-01-28T13:51:30;8.10;77.50
4425;DHT22;2225;53.568;13.266;2023-01-28T13:54:09;8.10;77.70
4425;DHT22;2225;53.568;13.266;2023-01-28T13:59:44;8.00;77.90
4425;DHT22;2225;53.568;13.266;2023-01-28T14:02:32;7.90;78.20
4425;DHT22;2225;53.568;13.266;2023-01-28T14:08:34;7.80;76.80
4425;DHT22;2225;53.568;13.266;2023-01-28T14:20:02;7.60;78.30
4425;DHT22;2225;53.568;13.266;2023-01-28T14:22:30;7.50;78.00
4425;DHT22;2225;53.568;13.266;2023-01-28T14:24:59;7.50;78.30
4425;DHT22;2225;53.568;13.266;2023-01-28T14:27:31;7.50;78.90
4425;DHT22;2225;53.568;13.266;2023-01-28T14:30:30;7.50;78.70
4425;DHT22;2225;53.568;13.266;2023-01-28T14:33:09;7.50;78.70
4425;DHT22;2225;53.568;13.266;2023-01-28T14:35:42;7.60;78.70
4425;DHT22;2225;53.568;13.266;2023-01-28T14:38:17;7.50;78.70
4425;DHT22;2225;53.568;13.266;2023-01-28T14:40:50;7.50;78.60
4425;DHT22;2225;53.568;13.266;2023-01-28T14:43:21;7.50;78.40
4425;DHT22;2225;53.568;13.266;2023-01-28T14:48:42;7.40;78.60
4425;DHT22;2225;53.568;13.266;2023-01-28T14:52:02;7.40;78.90
4425;DHT22;2225;53.568;13.266;2023-01-28T14:54:59;7.30;79.00
4425;DHT22;2225;53.568;13.266;2023-01-28T15:00:32;7.20;79.10
4425;DHT22;2225;53.568;13.266;2023-01-28T15:03:07;7.20;79.90
4425;DHT22;2225;53.568;13.266;2023-01-28T15:06:04;7.10;78.80
4425;DHT22;2225;53.568;13.266;2023-01-28T15:08:32;7.10;79.00
4425;DHT22;2225;53.568;13.266;2023-01-28T15:11:01;7.00;78.90
4425;DHT22;2225;53.568;13.266;2023-01-28T15:13:33;7.00;79.10
4425;DHT22;2225;53.568;13.266;2023-01-28T15:16:04;6.90;79.30
4425;DHT22;2225;53.568;13.266;2023-01-28T15:18:34;6.80;80.30
4425;DHT22;2225;53.568;13.266;2023-01-28T15:21:03;6.80;79.80
4425;DHT22;2225;53.568;13.266;2023-01-28T15:23:40;6.70;79.90
4425;DHT22;2225;53.568;13.266;2023-01-28T15:26:26;6.70;80.20
4425;DHT22;2225;53.568;13.266;2023-01-28T15:28:54;6.60;80.50
4425;DHT22;2225;53.568;13.266;2023-01-28T15:31:34;6.60;80.60
4425;DHT22;2225;53.568;13.266;2023-01-28T15:34:16;6.50;80.70
4425;DHT22;2225;53.568;13.266;2023-01-28T15:36:46;6.40;80.90
4425;DHT22;2225;53.568;13.266;2023-01-28T15:39:18;6.40;81.00
4425;DHT22;2225;53.568;13.266;2023-01-28T15:42:06;6.30;81.10
4425;DHT22;2225;53.568;13.266;2023-01-28T15:44:41;6.30;81.40
4425;DHT22;2225;53.568;13.266;2023-01-28T15:47:29;6.20;81.20
4425;DHT22;2225;53.568;13.266;2023-01-28T15:50:13;6.20;81.70
4425;DHT22;2225;53.568;13.266;2023-01-28T15:52:42;6.10;81.60
4425;DHT22;2225;53.568;13.266;2023-01-28T15:55:41;6.00;81.70
4425;DHT22;2225;53.568;13.266;2023-01-28T15:58:27;6.00;82.20
4425;DHT22;2225;53.568;13.266;2023-01-28T16:03:38;5.90;82.10
4425;DHT22;2225;53.568;13.266;2023-01-28T16:06:10;5.80;82.20
4425;DHT22;2225;53.568;13.266;2023-01-28T16:08:51;5.70;83.10
4425;DHT22;2225;53.568;13.266;2023-01-28T16:11:22;5.70;82.60
4425;DHT22;2225;53.568;13.266;2023-01-28T16:13:51;5.60;82.60
4425;DHT22;2225;53.568;13.266;2023-01-28T16:16:31;5.60;82.70
4425;DHT22;2225;53.568;13.266;2023-01-28T16:19:03;5.50;83.10
4425;DHT22;2225;53.568;13.266;2023-01-28T16:21:33;5.50;83.10
4425;DHT22;2225;53.568;13.266;2023-01-28T16:24:06;5.40;83.20
4425;DHT22;2225;53.568;13.266;2023-01-28T16:26:58;5.40;83.40
4425;DHT22;2225;53.568;13.266;2023-01-28T16:29:32;5.30;83.70
4425;DHT22;2225;53.568;13.266;2023-01-28T16:31:59;5.30;83.30
4425;DHT22;2225;53.568;13.266;2023-01-28T16:34:27;5.20;83.70
4425;DHT22;2225;53.568;13.266;2023-01-28T16:36:57;5.20;83.90
4425;DHT22;2225;53.568;13.266;2023-01-28T16:39:25;5.20;84.10
4425;DHT22;2225;53.568;13.266;2023-01-28T16:41:52;5.20;84.10
4425;DHT22;2225;53.568;13.266;2023-01-28T16:44:19;5.10;84.10
4425;DHT22;2225;53.568;13.266;2023-01-28T16:46:46;5.00;84.10
4425;DHT22;2225;53.568;13.266;2023-01-28T16:49:13;5.00;84.20
4425;DHT22;2225;53.568;13.266;2023-01-28T16:51:41;5.00;84.10
4425;DHT22;2225;53.568;13.266;2023-01-28T16:54:13;5.00;84.30
4425;DHT22;2225;53.568;13.266;2023-01-28T16:56:42;4.90;84.20
4425;DHT22;2225;53.568;13.266;2023-01-28T16:59:13;4.90;84.30
4425;DHT22;2225;53.568;13.266;2023-01-28T17:01:43;4.90;84.40
4425;DHT22;2225;53.568;13.266;2023-01-28T17:04:10;4.90;84.40
4425;DHT22;2225;53.568;13.266;2023-01-28T17:06:42;4.80;84.40
4425;DHT22;2225;53.568;13.266;2023-01-28T17:09:12;4.80;84.70
4425;DHT22;2225;53.568;13.266;2023-01-28T17:11:39;4.80;84.70
4425;DHT22;2225;53.568;13.266;2023-01-28T17:14:08;4.80;84.60
4425;DHT22;2225;53.568;13.266;2023-01-28T17:16:35;4.80;84.60
4425;DHT22;2225;53.568;13.266;2023-01-28T17:19:03;4.80;85.00
4425;DHT22;2225;53.568;13.266;2023-01-28T17:21:30;4.70;85.00
4425;DHT22;2225;53.568;13.266;2023-01-28T17:23:59;4.70;85.30
4425;DHT22;2225;53.568;13.266;2023-01-28T17:26:26;4.70;85.40
4425;DHT22;2225;53.568;13.266;2023-01-28T17:28:56;4.70;85.50
4425;DHT22;2225;53.568;13.266;2023-01-28T17:31:23;4.70;85.60
4425;DHT22;2225;53.568;13.266;2023-01-28T17:33:53;4.60;85.70
4425;DHT22;2225;53.568;13.266;2023-01-28T17:36:22;4.60;85.80
4425;DHT22;2225;53.568;13.266;2023-01-28T17:38:49;4.60;85.80
4425;DHT22;2225;53.568;13.266;2023-01-28T17:41:17;4.60;85.90
4425;DHT22;2225;53.568;13.266;2023-01-28T17:43:49;4.50;86.00
4425;DHT22;2225;53.568;13.266;2023-01-28T17:46:17;4.50;86.10
4425;DHT22;2225;53.568;13.266;2023-01-28T17:48:44;4.50;86.10
4425;DHT22;2225;53.568;13.266;2023-01-28T17:51:12;4.50;86.20
4425;DHT22;2225;53.568;13.266;2023-01-28T17:53:46;4.40;86.20